Time;durP1;ratioP1;P1;durP2;ratioP2;P2;SDS_P1;SDS_P2;PMS_P1;PMS_P2;Temp;Humidity;BMP_temperature;BMP_pressure;BME280_temperature;BME280_humidity;BME280_pressure;Samples;Min_cycle;Max_cycle;Signal;HPM_P1;HPM_P2
2023/07/13 00:02:06;;;;;;;2.63;1.70;;;24.90;58.00;;;;;;5070328;28;20224;-71
2023/07/13 00:04:34;;;;;;;3.57;1.40;;;24.80;57.90;;;;;;5070682;28;20200;-71
2023/07/13 00:07:01;;;;;;;1.57;1.43;;;24.80;58.00;;;;;;5070629;28;20216;-71
2023/07/13 00:09:28;;;;;;;1.90;1.40;;;24.80;58.10;;;;;;5070867;28;20221;-71
2023/07/13 00:11:56;;;;;;;3.17;1.67;;;24.80;58.00;;;;;;5071043;28;20298;-71
2023/07/13 00:14:24;;;;;;;3.67;1.57;;;24.70;58.20;;;;;;5070207;28;20213;-71
2023/07/13 00:16:51;;;;;;;5.03;1.70;;;24.70;58.00;;;;;;5070145;28;20236;-71
2023/07/13 00:19:19;;;;;;;1.53;1.17;;;24.70;57.90;;;;;;5070679;28;20316;-71
2023/07/13 00:21:46;;;;;;;1.80;1.40;;;24.70;58.30;;;;;;5060342;28;20209;-71
2023/07/13 00:24:18;;;;;;;2.90;1.57;;;24.70;58.30;;;;;;5070850;28;20211;-71
2023/07/13 00:26:45;;;;;;;2.70;1.30;;;24.60;58.40;;;;;;5070327;28;20213;-71
2023/07/13 00:29:13;;;;;;;4.37;1.30;;;24.60;58.30;;;;;;5070756;28;20205;-71
2023/07/13 00:31:40;;;;;;;2.43;1.60;;;24.60;58.50;;;;;;5070357;28;20956;-71
2023/07/13 00:34:07;;;;;;;2.80;1.70;;;24.60;58.90;;;;;;5069279;28;20201;-72
2023/07/13 00:36:35;;;;;;;1.60;1.30;;;24.50;59.00;;;;;;5072349;28;20225;-71
2023/07/13 00:39:03;;;;;;;4.80;1.77;;;24.50;59.10;;;;;;5074914;28;20216;-71
2023/07/13 00:41:30;;;;;;;1.60;1.40;;;24.40;59.70;;;;;;5074528;28;20209;-71
2023/07/13 00:43:57;;;;;;;1.50;1.30;;;24.40;59.40;;;;;;5074044;28;20231;-71
2023/07/13 00:46:27;;;;;;;2.43;1.50;;;24.40;59.70;;;;;;5073674;28;20212;-71
2023/07/13 00:48:57;;;;;;;4.80;1.70;;;24.30;59.60;;;;;;5074022;28;20221;-71
2023/07/13 00:51:29;;;;;;;2.43;1.40;;;24.30;60.00;;;;;;5073871;28;20716;-71
2023/07/13 00:54:00;;;;;;;3.10;1.80;;;24.30;60.30;;;;;;5073972;28;20189;-71
2023/07/13 00:56:28;;;;;;;2.17;1.63;;;24.20;60.20;;;;;;5073932;28;20212;-71
2023/07/13 00:58:56;;;;;;;2.50;1.60;;;24.10;59.80;;;;;;5073835;28;20209;-71
2023/07/13 01:01:22;;;;;;;2.70;1.80;;;24.10;60.30;;;;;;5074148;28;20197;-72
2023/07/13 01:03:50;;;;;;;3.50;1.50;;;24.10;60.00;;;;;;5073662;28;20621;-71
2023/07/13 01:06:18;;;;;;;2.57;2.00;;;24.00;59.60;;;;;;5073410;28;20235;-71
2023/07/13 01:08:45;;;;;;;2.57;1.80;;;24.00;59.40;;;;;;5073605;28;20225;-71
2023/07/13 01:11:13;;;;;;;3.10;1.40;;;24.00;59.60;;;;;;5073607;28;20193;-71
2023/07/13 01:13:40;;;;;;;2.63;1.80;;;24.00;59.60;;;;;;5073691;28;20225;-71
2023/07/13 01:16:15;;;;;;;2.03;1.43;;;24.00;59.40;;;;;;5073575;28;20673;-70
2023/07/13 01:18:43;;;;;;;2.33;1.67;;;24.00;59.40;;;;;;5057717;28;20189;-71
2023/07/13 01:21:11;;;;;;;2.83;1.80;;;24.00;59.10;;;;;;5072670;28;20232;-71
2023/07/13 01:23:38;;;;;;;3.37;1.60;;;23.90;59.30;;;;;;5072503;28;20200;-71
2023/07/13 01:26:04;;;;;;;3.23;1.57;;;23.90;59.10;;;;;;5073439;28;20203;-71
2023/07/13 01:28:36;;;;;;;1.80;1.37;;;23.90;59.30;;;;;;5073107;28;20689;-71
2023/07/13 01:31:04;;;;;;;8.07;4.87;;;23.90;59.20;;;;;;5073443;28;20196;-71
2023/07/13 01:33:30;;;;;;;11.70;6.37;;;23.90;59.30;;;;;;5073231;28;20227;-71
2023/07/13 01:35:58;;;;;;;7.07;5.33;;;23.80;59.10;;;;;;5073114;28;20225;-70
2023/07/13 01:38:26;;;;;;;7.47;3.57;;;23.80;59.50;;;;;;5073297;28;20638;-71
2023/07/13 01:40:53;;;;;;;5.57;3.20;;;23.80;58.90;;;;;;5057262;28;20201;-72
2023/07/13 01:43:21;;;;;;;4.87;2.80;;;23.70;58.60;;;;;;5072826;28;20858;-70
2023/07/13 01:45:48;;;;;;;4.93;2.67;;;23.70;58.50;;;;;;5072585;28;20240;-70
2023/07/13 01:48:15;;;;;;;5.00;2.30;;;23.70;58.40;;;;;;5072116;28;20216;-70
2023/07/13 01:50:42;;;;;;;3.80;2.40;;;23.70;58.40;;;;;;5072686;28;20560;-70
2023/07/13 01:53:09;;;;;;;5.50;2.40;;;23.70;58.20;;;;;;5073174;28;20213;-70
2023/07/13 01:55:38;;;;;;;5.40;2.70;;;23.60;58.00;;;;;;5073103;28;20230;-71
2023/07/13 01:58:06;;;;;;;3.60;2.30;;;23.60;58.20;;;;;;5072878;28;20224;-70
2023/07/13 02:00:33;;;;;;;4.87;2.67;;;23.60;58.00;;;;;;5054625;28;20270;-72
2023/07/13 02:03:00;;;;;;;7.57;2.47;;;23.60;57.80;;;;;;5072526;28;20573;-72
2023/07/13 02:05:27;;;;;;;4.43;2.30;;;23.60;57.60;;;;;;5072670;28;20281;-72
2023/07/13 02:07:54;;;;;;;3.87;2.33;;;23.70;57.70;;;;;;5072939;28;20305;-72
2023/07/13 02:10:21;;;;;;;2.50;2.10;;;23.70;58.40;;;;;;5072556;28;20608;-72
2023/07/13 02:12:50;;;;;;;3.80;1.83;;;23.70;57.20;;;;;;5072110;28;20231;-72
2023/07/13 02:15:18;;;;;;;2.90;1.97;;;23.70;57.20;;;;;;5072243;28;20197;-70
2023/07/13 02:17:44;;;;;;;2.40;2.00;;;23.70;56.90;;;;;;5072571;28;20661;-70
2023/07/13 02:20:12;;;;;;;2.37;1.70;;;23.70;56.90;;;;;;5072333;28;20244;-70
2023/07/13 02:22:38;;;;;;;3.07;2.07;;;23.70;58.20;;;;;;5072638;28;20190;-70
2023/07/13 02:25:06;;;;;;;3.17;1.67;;;23.60;58.90;;;;;;5072040;28;20204;-70
2023/07/13 02:27:33;;;;;;;5.97;1.90;;;23.40;59.20;;;;;;5072541;28;20219;-70
2023/07/13 02:30:01;;;;;;;1.90;1.63;;;23.30;59.40;;;;;;5072044;28;20205;-70
2023/07/13 02:32:28;;;;;;;2.77;1.50;;;23.20;59.60;;;;;;5071905;28;20208;-70
2023/07/13 02:34:54;;;;;;;3.57;1.90;;;23.10;59.90;;;;;;5071808;28;20869;-72
2023/07/13 02:37:22;;;;;;;1.73;1.40;;;23.00;60.20;;;;;;5072459;28;20197;-72
2023/07/13 02:39:48;;;;;;;4.03;1.63;;;23.00;60.60;;;;;;5072179;28;20208;-70
2023/07/13 02:42:16;;;;;;;2.77;1.57;;;22.90;61.70;;;;;;5071895;28;20205;-72
2023/07/13 02:44:42;;;;;;;3.60;1.70;;;22.90;61.00;;;;;;5071708;28;20220;-70
2023/07/13 02:47:11;;;;;;;3.90;1.60;;;22.90;61.20;;;;;;5071968;28;20537;-70
2023/07/13 02:49:38;;;;;;;2.63;1.73;;;22.80;61.20;;;;;;5072193;28;20335;-70
2023/07/13 02:52:05;;;;;;;2.43;1.63;;;22.70;61.70;;;;;;5071359;28;20677;-70
2023/07/13 02:54:32;;;;;;;2.30;1.70;;;22.70;61.40;;;;;;5071717;28;20205;-70
2023/07/13 02:56:59;;;;;;;3.67;1.70;;;22.70;61.30;;;;;;5071939;28;20532;-70
2023/07/13 02:59:26;;;;;;;1.80;1.67;;;22.60;61.20;;;;;;5066888;28;20233;-70
2023/07/13 03:01:53;;;;;;;3.30;1.83;;;22.60;62.20;;;;;;5071530;28;20255;-70
2023/07/13 03:04:20;;;;;;;2.13;1.83;;;22.60;61.80;;;;;;5071062;28;20547;-70
2023/07/13 03:06:47;;;;;;;1.63;1.53;;;22.50;61.80;;;;;;5071483;28;20282;-71
2023/07/13 03:09:14;;;;;;;3.50;1.77;;;22.50;62.20;;;;;;5071564;28;20224;-72
2023/07/13 03:11:41;;;;;;;5.07;1.80;;;22.60;62.90;;;;;;5071475;28;20205;-71
2023/07/13 03:14:09;;;;;;;2.03;1.50;;;22.50;62.90;;;;;;5070940;28;20225;-70
2023/07/13 03:16:36;;;;;;;2.50;1.70;;;22.50;62.70;;;;;;5071452;28;20232;-71
2023/07/13 03:19:03;;;;;;;3.97;1.80;;;22.40;62.40;;;;;;5071339;28;20221;-72
2023/07/13 03:21:31;;;;;;;2.03;1.73;;;22.30;62.70;;;;;;5070985;28;20229;-72
2023/07/13 03:23:58;;;;;;;3.23;1.60;;;22.40;63.10;;;;;;5070966;28;20201;-70
2023/07/13 03:26:25;;;;;;;1.53;1.40;;;22.30;63.10;;;;;;5071401;28;20213;-70
2023/07/13 03:28:52;;;;;;;2.80;1.90;;;22.20;63.00;;;;;;5070811;28;20252;-70
2023/07/13 03:31:21;;;;;;;2.13;1.53;;;22.20;63.10;;;;;;5071028;28;20196;-70
2023/07/13 03:33:48;;;;;;;1.83;1.60;;;22.20;63.60;;;;;;5070807;28;20209;-70
2023/07/13 03:36:18;;;;;;;1.67;1.37;;;22.10;63.60;;;;;;5070668;28;20698;-71
2023/07/13 03:38:47;;;;;;;3.83;1.60;;;22.10;63.90;;;;;;5071227;28;20197;-72
2023/07/13 03:41:15;;;;;;;1.90;1.57;;;22.10;64.40;;;;;;5062510;28;20207;-72
2023/07/13 03:43:42;;;;;;;2.63;1.63;;;22.00;64.30;;;;;;5070189;28;20796;-72
2023/07/13 03:46:08;;;;;;;3.10;1.50;;;22.00;64.50;;;;;;5070371;28;20201;-72
2023/07/13 03:48:35;;;;;;;3.00;1.73;;;22.00;64.90;;;;;;5071024;28;20220;-71
2023/07/13 03:51:02;;;;;;;3.27;1.80;;;21.90;64.90;;;;;;5070636;28;20225;-71
2023/07/13 03:53:29;;;;;;;1.93;1.73;;;21.90;64.90;;;;;;5070605;28;20247;-73
2023/07/13 03:55:58;;;;;;;3.53;1.97;;;21.80;64.90;;;;;;5070786;28;20201;-71
2023/07/13 03:58:29;;;;;;;3.77;2.10;;;21.80;65.10;;;;;;5070428;28;20221;-72
2023/07/13 04:00:57;;;;;;;2.27;2.00;;;21.70;65.40;;;;;;5070780;28;20289;-71
2023/07/13 04:03:24;;;;;;;2.63;2.03;;;21.70;66.40;;;;;;5070579;28;20356;-71
2023/07/13 04:05:51;;;;;;;2.47;2.00;;;21.70;65.80;;;;;;5070105;28;20316;-71
2023/07/13 04:08:18;;;;;;;1.70;1.60;;;21.60;65.80;;;;;;5070812;28;20312;-71
2023/07/13 04:10:45;;;;;;;3.60;1.70;;;21.70;65.80;;;;;;5070151;28;20216;-71
2023/07/13 04:13:14;;;;;;;4.10;2.13;;;21.70;65.90;;;;;;5070173;28;20224;-71
2023/07/13 04:15:41;;;;;;;3.53;2.10;;;21.80;66.20;;;;;;5070570;28;20220;-72
2023/07/13 04:18:08;;;;;;;2.00;1.50;;;21.80;66.00;;;;;;5070590;28;20220;-71
2023/07/13 04:20:35;;;;;;;2.60;2.00;;;21.80;66.30;;;;;;5070502;28;20220;-71
2023/07/13 04:23:02;;;;;;;3.73;1.70;;;21.80;66.30;;;;;;5070005;28;20303;-71
2023/07/13 04:25:29;;;;;;;2.20;1.67;;;21.80;66.20;;;;;;5070192;28;20212;-71
2023/07/13 04:27:56;;;;;;;2.03;1.70;;;22.00;66.40;;;;;;5070070;28;20221;-71
2023/07/13 04:30:25;;;;;;;4.23;2.00;;;21.80;66.40;;;;;;5070829;28;20259;-71
2023/07/13 04:32:52;;;;;;;3.13;1.60;;;21.90;67.00;;;;;;5070391;28;20209;-71
2023/07/13 04:35:20;;;;;;;2.80;1.90;;;21.90;66.70;;;;;;5070121;28;20229;-71
2023/07/13 04:37:48;;;;;;;2.37;1.80;;;21.90;66.70;;;;;;5070184;28;20193;-72
2023/07/13 04:40:15;;;;;;;2.80;2.30;;;22.00;67.00;;;;;;5050546;28;20674;-71
2023/07/13 04:42:42;;;;;;;3.13;1.63;;;22.00;66.90;;;;;;5057297;28;20207;-71
2023/07/13 04:45:09;;;;;;;3.20;2.00;;;22.00;66.80;;;;;;5069908;28;20582;-72
2023/07/13 04:47:38;;;;;;;2.63;1.90;;;22.10;67.00;;;;;;5069929;28;20223;-71
2023/07/13 04:50:05;;;;;;;2.73;1.70;;;22.20;68.00;;;;;;5070242;28;20300;-71
2023/07/13 04:52:33;;;;;;;3.70;1.93;;;22.20;67.70;;;;;;5069769;28;20292;-71
2023/07/13 04:55:00;;;;;;;3.93;1.97;;;22.30;67.60;;;;;;5069944;28;20229;-71
2023/07/13 04:57:27;;;;;;;3.40;2.07;;;22.30;68.20;;;;;;5070240;28;20186;-71
2023/07/13 04:59:54;;;;;;;3.47;2.00;;;22.40;67.20;;;;;;5070321;28;20260;-71
2023/07/13 05:02:22;;;;;;;2.83;1.83;;;22.50;67.10;;;;;;5069619;28;20312;-71
2023/07/13 05:04:50;;;;;;;3.03;1.90;;;22.50;67.00;;;;;;5070319;28;20510;-71
2023/07/13 05:07:17;;;;;;;4.83;2.13;;;22.50;67.00;;;;;;5069747;28;20205;-71
2023/07/13 05:09:44;;;;;;;5.27;2.20;;;22.50;67.00;;;;;;5068692;28;20317;-71
2023/07/13 05:12:11;;;;;;;6.07;2.27;;;22.60;66.80;;;;;;5070206;28;20211;-71
2023/07/13 05:14:38;;;;;;;5.23;2.73;;;22.70;67.50;;;;;;5068984;28;20221;-71
2023/07/13 05:17:05;;;;;;;4.10;2.07;;;22.70;67.50;;;;;;5069619;28;20637;-71
2023/07/13 05:19:32;;;;;;;5.30;2.50;;;22.70;66.90;;;;;;5069818;28;20220;-71
2023/07/13 05:22:02;;;;;;;3.27;2.17;;;22.80;67.00;;;;;;5070345;28;20227;-71
2023/07/13 05:24:29;;;;;;;11.97;2.90;;;22.80;66.60;;;;;;5072661;28;20244;-72
2023/07/13 05:26:56;;;;;;;4.63;2.07;;;22.80;66.60;;;;;;5072845;28;20683;-71
2023/07/13 05:29:23;;;;;;;3.00;1.90;;;22.80;66.40;;;;;;5072973;28;20231;-71
2023/07/13 05:31:51;;;;;;;3.90;2.20;;;22.80;66.80;;;;;;5072092;28;20185;-71
2023/07/13 05:34:18;;;;;;;3.43;1.83;;;22.90;66.70;;;;;;5072832;28;20212;-71
2023/07/13 05:36:45;;;;;;;2.70;2.07;;;22.90;65.50;;;;;;5072915;28;20203;-71
2023/07/13 05:39:13;;;;;;;3.27;2.10;;;22.90;65.20;;;;;;5073379;28;20201;-71
2023/07/13 05:41:40;;;;;;;4.07;2.07;;;23.00;65.30;;;;;;5072427;28;20304;-71
2023/07/13 05:44:07;;;;;;;2.67;1.73;;;23.00;64.80;;;;;;5070098;28;20224;-72
2023/07/13 05:46:34;;;;;;;2.83;1.73;;;23.00;64.50;;;;;;5044489;28;20364;-71
2023/07/13 05:49:01;;;;;;;3.67;2.03;;;23.10;64.80;;;;;;5072839;28;20373;-71
2023/07/13 05:51:28;;;;;;;2.27;1.90;;;23.10;64.60;;;;;;5068988;28;20218;-72
2023/07/13 05:53:55;;;;;;;2.47;2.13;;;23.10;64.80;;;;;;5060374;28;20258;-72
2023/07/13 05:56:25;;;;;;;4.20;2.23;;;23.10;64.70;;;;;;5073326;28;20280;-71
2023/07/13 05:58:52;;;;;;;3.57;2.00;;;23.20;64.80;;;;;;5073656;28;20217;-71
2023/07/13 06:01:20;;;;;;;4.53;2.20;;;23.20;64.90;;;;;;5073812;28;20312;-71
2023/07/13 06:03:47;;;;;;;2.73;2.10;;;23.30;65.70;;;;;;5072130;28;20282;-72
2023/07/13 06:06:14;;;;;;;2.60;2.10;;;23.30;64.40;;;;;;5072600;28;20208;-72
2023/07/13 06:08:40;;;;;;;3.53;2.20;;;23.40;64.70;;;;;;5072077;28;20228;-72
2023/07/13 06:11:11;;;;;;;3.03;2.27;;;23.40;64.90;;;;;;5072547;28;20205;-73
2023/07/13 06:13:39;;;;;;;3.10;2.07;;;23.50;65.00;;;;;;5071984;28;20204;-74
2023/07/13 06:16:06;;;;;;;3.60;2.07;;;23.60;65.40;;;;;;5053511;28;20232;-73
2023/07/13 06:18:34;;;;;;;2.43;2.17;;;23.70;65.20;;;;;;5071425;28;20201;-71
2023/07/13 06:21:01;;;;;;;4.23;2.40;;;23.70;65.50;;;;;;5071801;28;20325;-71
2023/07/13 06:23:28;;;;;;;3.90;2.07;;;23.70;64.80;;;;;;5071974;28;20228;-73
2023/07/13 06:25:56;;;;;;;5.07;2.30;;;23.80;64.80;;;;;;5071927;28;20532;-73
2023/07/13 06:28:23;;;;;;;5.40;2.10;;;23.90;64.00;;;;;;5071352;28;20722;-73
2023/07/13 06:30:51;;;;;;;2.17;1.70;;;24.10;64.70;;;;;;5071863;28;20206;-73
2023/07/13 06:33:18;;;;;;;2.00;1.80;;;24.10;62.60;;;;;;5071306;28;20205;-73
2023/07/13 06:35:44;;;;;;;3.67;1.87;;;24.20;61.20;;;;;;5071734;28;20223;-73
2023/07/13 06:38:12;;;;;;;2.53;2.00;;;24.30;61.60;;;;;;5071530;28;20235;-73
2023/07/13 06:40:38;;;;;;;3.63;2.00;;;24.30;60.50;;;;;;5071831;28;20313;-73
2023/07/13 06:43:05;;;;;;;3.97;1.70;;;24.30;58.30;;;;;;5070513;28;20220;-72
2023/07/13 06:45:36;;;;;;;2.70;1.90;;;24.30;57.20;;;;;;5071124;28;20211;-72
2023/07/13 06:48:04;;;;;;;4.47;1.87;;;24.30;57.00;;;;;;5070898;28;20228;-73
2023/07/13 06:50:31;;;;;;;5.23;1.77;;;24.40;56.60;;;;;;5071234;28;20209;-73
2023/07/13 06:52:59;;;;;;;3.20;2.00;;;24.40;56.60;;;;;;5071230;28;20291;-72
2023/07/13 06:55:26;;;;;;;4.53;2.03;;;24.40;55.90;;;;;;5070788;28;20197;-73
2023/07/13 06:57:53;;;;;;;2.20;1.83;;;24.40;55.50;;;;;;5070824;28;20217;-74
2023/07/13 07:00:20;;;;;;;3.70;2.10;;;24.50;55.30;;;;;;5071148;28;20209;-73
2023/07/13 07:02:47;;;;;;;3.93;1.73;;;24.60;54.80;;;;;;5070421;28;20954;-72
2023/07/13 07:05:15;;;;;;;3.60;1.77;;;24.70;54.40;;;;;;5071220;28;20207;-72
2023/07/13 07:07:42;;;;;;;2.03;1.83;;;24.80;55.20;;;;;;5070709;28;20221;-73
2023/07/13 07:10:09;;;;;;;2.10;1.33;;;24.90;55.30;;;;;;5051237;28;20229;-72
2023/07/13 07:12:36;;;;;;;2.17;1.50;;;25.00;54.30;;;;;;5051319;28;20535;-72
2023/07/13 07:15:03;;;;;;;2.73;1.70;;;25.00;54.20;;;;;;5050778;28;20212;-73
2023/07/13 07:17:30;;;;;;;2.53;1.50;;;25.10;54.10;;;;;;5050791;28;20328;-72
2023/07/13 07:19:57;;;;;;;1.60;1.40;;;25.30;53.30;;;;;;5042931;28;20553;-73
2023/07/13 07:22:27;;;;;;;2.97;1.70;;;25.30;53.00;;;;;;5071227;28;20212;-72
2023/07/13 07:24:54;;;;;;;2.23;1.70;;;25.40;53.20;;;;;;5069799;28;20212;-72
2023/07/13 07:27:21;;;;;;;3.07;1.60;;;25.40;53.40;;;;;;5070924;28;20596;-72
2023/07/13 07:29:48;;;;;;;2.63;2.00;;;25.40;53.70;;;;;;5070900;28;20221;-72
2023/07/13 07:32:14;;;;;;;2.40;1.43;;;25.50;53.30;;;;;;5070896;28;20209;-72
2023/07/13 07:34:41;;;;;;;1.53;1.43;;;25.60;53.40;;;;;;5070853;28;20232;-73
2023/07/13 07:37:12;;;;;;;4.00;1.70;;;25.70;54.00;;;;;;5071189;28;20221;-73
2023/07/13 07:39:40;;;;;;;4.03;1.70;;;25.90;53.10;;;;;;5071074;28;20305;-72
2023/07/13 07:42:07;;;;;;;3.30;1.60;;;26.00;53.00;;;;;;5068250;28;20269;-72
2023/07/13 07:44:35;;;;;;;2.80;1.60;;;26.00;52.10;;;;;;5050897;28;20224;-72
2023/07/13 07:47:02;;;;;;;4.30;1.90;;;26.00;51.80;;;;;;5069083;28;20204;-73
2023/07/13 07:49:28;;;;;;;3.63;1.50;;;25.90;52.50;;;;;;5069987;28;20235;-72
2023/07/13 07:51:55;;;;;;;3.20;1.60;;;25.90;52.80;;;;;;5067404;28;20197;-72
2023/07/13 07:54:22;;;;;;;3.93;1.80;;;26.00;53.30;;;;;;5050712;28;20226;-72
2023/07/13 07:56:50;;;;;;;4.17;1.73;;;26.10;52.40;;;;;;5064362;28;20221;-72
2023/07/13 07:59:17;;;;;;;2.97;1.90;;;26.20;52.40;;;;;;5070266;28;20222;-73
2023/07/13 08:01:46;;;;;;;3.83;1.90;;;26.20;52.10;;;;;;5070584;28;20823;-72
2023/07/13 08:04:12;;;;;;;3.30;1.67;;;26.20;51.60;;;;;;5055589;28;20244;-73
2023/07/13 08:06:40;;;;;;;2.27;1.50;;;26.20;50.60;;;;;;5070597;28;20194;-73
2023/07/13 08:09:07;;;;;;;2.20;1.50;;;26.30;50.40;;;;;;5070399;28;20318;-73
2023/07/13 08:11:35;;;;;;;3.70;1.73;;;26.40;49.20;;;;;;5070764;28;20229;-73
2023/07/13 08:14:04;;;;;;;2.23;1.50;;;26.40;49.40;;;;;;5070799;28;20296;-72
2023/07/13 08:16:32;;;;;;;4.67;1.60;;;26.60;48.50;;;;;;5070163;28;20219;-73
2023/07/13 08:18:59;;;;;;;1.97;1.43;;;26.60;48.40;;;;;;5070231;28;20285;-72
2023/07/13 08:21:26;;;;;;;1.33;1.23;;;26.70;48.00;;;;;;5069102;28;20226;-73
2023/07/13 08:23:53;;;;;;;2.33;1.50;;;26.80;48.70;;;;;;5070499;28;20212;-72
2023/07/13 08:26:21;;;;;;;2.90;1.57;;;27.00;48.90;;;;;;5069241;28;20229;-71
2023/07/13 08:28:48;;;;;;;2.67;1.53;;;27.10;48.70;;;;;;5070199;28;20597;-72
2023/07/13 08:31:16;;;;;;;4.67;1.50;;;27.20;48.10;;;;;;5069584;28;20309;-72
2023/07/13 08:33:43;;;;;;;2.37;1.63;;;27.00;47.10;;;;;;5069953;28;20211;-72
2023/07/13 08:36:10;;;;;;;2.67;1.53;;;27.10;47.30;;;;;;5070605;28;20212;-73
2023/07/13 08:38:37;;;;;;;3.63;1.87;;;27.20;48.20;;;;;;5071538;28;20201;-74
2023/07/13 08:41:12;;;;;;;2.87;1.60;;;27.20;47.00;;;;;;5071350;28;20209;-73
2023/07/13 08:43:40;;;;;;;3.90;1.50;;;27.10;46.50;;;;;;5071122;28;20234;-73
2023/07/13 08:46:14;;;;;;;2.23;1.60;;;27.10;46.70;;;;;;5071249;28;20200;-72
2023/07/13 08:48:46;;;;;;;3.07;1.50;;;27.10;45.90;;;;;;5071314;28;20218;-72
2023/07/13 08:51:33;;;;;;;1.90;1.43;;;27.10;45.90;;;;;;5071097;28;20340;-72
2023/07/13 08:54:02;;;;;;;2.37;1.40;;;27.00;46.20;;;;;;5070858;28;20213;-72
2023/07/13 08:56:31;;;;;;;3.27;1.40;;;27.10;46.20;;;;;;5070959;28;20665;-72
2023/07/13 08:59:01;;;;;;;2.10;1.30;;;27.20;46.30;;;;;;5074456;28;20298;-72
2023/07/13 09:01:33;;;;;;;3.20;1.80;;;27.30;47.30;;;;;;5074430;28;20240;-72
2023/07/13 09:04:08;;;;;;;4.17;1.53;;;27.20;45.30;;;;;;5074763;28;20200;-71
2023/07/13 09:06:49;;;;;;;3.77;2.00;;;27.40;45.90;;;;;;5074524;28;20191;-72
2023/07/13 09:09:27;;;;;;;2.27;1.50;;;27.40;42.90;;;;;;5075089;28;20233;-72
2023/07/13 09:12:05;;;;;;;3.17;1.60;;;27.30;44.10;;;;;;5074543;28;20226;-72
2023/07/13 09:14:42;;;;;;;2.43;1.20;;;27.30;42.80;;;;;;5074666;28;20315;-72
2023/07/13 09:17:17;;;;;;;2.50;1.30;;;27.50;43.50;;;;;;5074750;28;20253;-72
2023/07/13 09:19:51;;;;;;;2.80;1.20;;;27.50;42.30;;;;;;5074765;28;20314;-71
2023/07/13 09:22:21;;;;;;;2.87;1.40;;;27.40;41.10;;;;;;5074442;28;20295;-72
2023/07/13 09:25:00;;;;;;;1.53;1.43;;;27.50;42.90;;;;;;5074619;28;20388;-72
2023/07/13 09:27:34;;;;;;;5.40;1.47;;;27.70;43.40;;;;;;5074265;28;20314;-71
2023/07/13 09:30:22;;;;;;;4.63;1.60;;;27.90;44.40;;;;;;5074707;28;20216;-72
2023/07/13 09:32:53;;;;;;;3.50;1.73;;;28.00;42.70;;;;;;5074002;28;20204;-72
2023/07/13 09:35:28;;;;;;;3.73;1.50;;;28.10;42.40;;;;;;5073501;28;20208;-72
2023/07/13 09:38:00;;;;;;;2.67;1.70;;;28.10;41.50;;;;;;5074451;28;20245;-72
2023/07/13 09:40:37;;;;;;;2.73;1.63;;;28.00;42.00;;;;;;5074662;28;20228;-72
2023/07/13 09:43:05;;;;;;;2.47;1.43;;;28.00;41.90;;;;;;5074084;28;20200;-71
2023/07/13 09:45:35;;;;;;;2.60;1.53;;;28.00;41.90;;;;;;5073378;28;20692;-71
2023/07/13 09:48:07;;;;;;;1.80;1.40;;;28.00;42.80;;;;;;5073957;28;20215;-72
2023/07/13 09:50:36;;;;;;;2.93;1.50;;;28.00;42.80;;;;;;5054368;28;20206;-71
2023/07/13 09:53:04;;;;;;;3.70;1.63;;;28.10;41.90;;;;;;5066256;28;20593;-71
2023/07/13 09:55:34;;;;;;;2.87;1.70;;;28.10;41.80;;;;;;5073953;28;20208;-71
2023/07/13 09:58:06;;;;;;;1.97;1.30;;;28.20;41.80;;;;;;5074307;28;20293;-72
2023/07/13 10:00:33;;;;;;;2.03;1.60;;;28.30;40.90;;;;;;5073586;28;20236;-72
2023/07/13 10:03:06;;;;;;;1.60;1.20;;;28.20;40.50;;;;;;5073889;28;20224;-71
2023/07/13 10:05:43;;;;;;;3.23;1.60;;;28.30;41.10;;;;;;5073302;28;20260;-72
2023/07/13 10:08:27;;;;;;;3.93;1.20;;;28.20;40.10;;;;;;5073312;28;20207;-71
2023/07/13 10:11:00;;;;;;;3.63;1.43;;;28.20;40.10;;;;;;5073209;28;20270;-72
2023/07/13 10:13:36;;;;;;;4.00;1.43;;;28.20;41.30;;;;;;5073525;28;20213;-72
2023/07/13 10:16:06;;;;;;;3.67;1.43;;;28.30;41.30;;;;;;5073210;28;20206;-72
2023/07/13 10:18:40;;;;;;;4.10;1.50;;;28.30;41.40;;;;;;5036670;28;20746;-71
2023/07/13 10:21:15;;;;;;;4.90;1.70;;;28.40;41.10;;;;;;5072626;28;20272;-72
2023/07/13 10:23:43;;;;;;;4.53;1.67;;;28.50;41.00;;;;;;5072715;28;20208;-72
2023/07/13 10:26:17;;;;;;;2.93;1.57;;;28.70;41.50;;;;;;5072417;28;20204;-71
2023/07/13 10:28:47;;;;;;;3.00;1.50;;;28.80;40.60;;;;;;5072135;28;20227;-72
2023/07/13 10:31:16;;;;;;;2.97;1.53;;;28.90;40.70;;;;;;5071839;28;20221;-72
2023/07/13 10:33:44;;;;;;;3.87;1.67;;;28.80;40.60;;;;;;5072579;28;20204;-72
2023/07/13 10:36:21;;;;;;;1.60;1.50;;;28.90;41.00;;;;;;5071779;28;20258;-71
2023/07/13 10:38:52;;;;;;;4.60;1.60;;;28.90;40.80;;;;;;5070382;28;20193;-71
2023/07/13 10:41:23;;;;;;;3.27;1.60;;;28.90;41.20;;;;;;5063715;28;20206;-72
2023/07/13 10:43:53;;;;;;;3.83;1.63;;;29.00;40.30;;;;;;5063955;28;20229;-72
2023/07/13 10:46:23;;;;;;;1.87;1.40;;;28.90;40.80;;;;;;5070868;28;20207;-72
2023/07/13 10:48:52;;;;;;;3.17;1.67;;;29.00;41.70;;;;;;5072957;28;20296;-72
2023/07/13 10:51:22;;;;;;;2.50;1.57;;;29.20;42.10;;;;;;5072731;28;20541;-72
2023/07/13 10:54:09;;;;;;;2.10;1.60;;;29.40;40.70;;;;;;5073031;28;20291;-71
2023/07/13 10:56:36;;;;;;;2.20;1.47;;;29.50;40.80;;;;;;5064296;28;20224;-71
2023/07/13 10:59:12;;;;;;;3.20;1.60;;;29.50;40.20;;;;;;5072319;28;20644;-72
2023/07/13 11:01:51;;;;;;;2.67;1.70;;;29.50;40.30;;;;;;5072700;28;20331;-71
2023/07/13 11:04:21;;;;;;;2.53;1.67;;;29.40;39.20;;;;;;5071702;28;20193;-72
2023/07/13 11:06:53;;;;;;;3.77;2.00;;;29.20;39.80;;;;;;5071667;28;20292;-72
2023/07/13 11:09:33;;;;;;;5.43;2.00;;;29.40;42.20;;;;;;5071668;28;20233;-72
2023/07/13 11:12:01;;;;;;;3.90;1.50;;;29.40;40.40;;;;;;5071751;28;20279;-72
2023/07/13 11:14:32;;;;;;;1.37;1.27;;;29.50;40.30;;;;;;5071654;28;20324;-72
2023/07/13 11:16:59;;;;;;;2.50;1.70;;;29.60;40.60;;;;;;5071543;28;20661;-72
2023/07/13 11:19:42;;;;;;;2.33;1.60;;;29.60;40.10;;;;;;5071442;28;20240;-72
2023/07/13 11:22:21;;;;;;;1.40;1.30;;;29.70;41.30;;;;;;5071522;28;20220;-72
2023/07/13 11:25:00;;;;;;;2.50;1.60;;;29.80;40.30;;;;;;5072292;28;20208;-72
2023/07/13 11:27:38;;;;;;;2.17;1.67;;;29.80;40.10;;;;;;5071909;28;20199;-72
2023/07/13 11:30:23;;;;;;;4.33;1.77;;;29.90;40.20;;;;;;5072574;28;20211;-71
2023/07/13 11:33:05;;;;;;;2.20;1.70;;;30.10;41.00;;;;;;5072110;28;20201;-72
2023/07/13 11:35:36;;;;;;;2.60;1.60;;;30.10;39.90;;;;;;5062175;28;20221;-72
2023/07/13 11:38:13;;;;;;;4.33;1.70;;;29.90;39.50;;;;;;5072072;28;20212;-72
2023/07/13 11:40:40;;;;;;;1.53;1.40;;;30.00;40.90;;;;;;5070018;28;20197;-72
2023/07/13 11:43:08;;;;;;;4.00;1.60;;;30.10;40.60;;;;;;5071515;28;20565;-72
2023/07/13 11:45:35;;;;;;;3.40;1.57;;;30.10;39.60;;;;;;5071277;28;20215;-72
2023/07/13 11:48:02;;;;;;;2.97;1.70;;;30.10;39.90;;;;;;5070818;28;20235;-72
2023/07/13 11:50:29;;;;;;;3.27;1.80;;;30.10;39.50;;;;;;5070938;28;20312;-72
2023/07/13 11:52:59;;;;;;;2.53;1.30;;;29.90;38.90;;;;;;5070602;28;20207;-72
2023/07/13 11:55:30;;;;;;;3.13;1.63;;;29.70;39.10;;;;;;5070662;28;20635;-72
2023/07/13 11:57:59;;;;;;;2.43;1.67;;;29.70;39.00;;;;;;5068388;28;20189;-73
2023/07/13 12:00:31;;;;;;;3.50;1.90;;;29.70;40.20;;;;;;5070772;28;20217;-72
2023/07/13 12:03:02;;;;;;;3.60;1.80;;;29.80;39.40;;;;;;5071121;28;20197;-72
2023/07/13 12:05:31;;;;;;;3.13;1.80;;;30.10;41.60;;;;;;5070773;28;20284;-72
2023/07/13 12:07:58;;;;;;;3.40;1.70;;;30.20;39.40;;;;;;5070990;28;20596;-72
2023/07/13 12:10:28;;;;;;;3.57;2.00;;;30.20;39.60;;;;;;5070664;28;20308;-72
2023/07/13 12:12:57;;;;;;;3.90;1.70;;;30.50;40.00;;;;;;5069964;28;20193;-72
2023/07/13 12:15:31;;;;;;;6.47;1.77;;;30.60;38.00;;;;;;5071645;28;20221;-72
2023/07/13 12:17:58;;;;;;;7.80;1.60;;;30.50;38.10;;;;;;5071529;28;20227;-73
2023/07/13 12:20:27;;;;;;;2.80;1.80;;;30.50;38.30;;;;;;5071720;28;20201;-72
2023/07/13 12:22:54;;;;;;;2.63;1.60;;;30.60;38.40;;;;;;5071820;28;20271;-72
2023/07/13 12:25:23;;;;;;;3.83;1.50;;;30.60;38.80;;;;;;5070977;28;20197;-72
2023/07/13 12:27:52;;;;;;;1.80;1.50;;;30.60;36.90;;;;;;5070246;28;20291;-72
2023/07/13 12:30:26;;;;;;;2.43;1.70;;;30.40;36.60;;;;;;5071071;28;20223;-72
2023/07/13 12:33:01;;;;;;;1.87;1.60;;;30.40;38.00;;;;;;5073459;28;20203;-72
2023/07/13 12:35:35;;;;;;;3.63;1.80;;;30.60;40.00;;;;;;5065511;28;20221;-72
2023/07/13 12:38:02;;;;;;;1.97;1.57;;;30.90;39.80;;;;;;5075801;28;20596;-72
2023/07/13 12:40:36;;;;;;;2.77;1.70;;;31.20;38.90;;;;;;5075092;28;20301;-72
2023/07/13 12:43:06;;;;;;;3.27;1.70;;;31.10;35.50;;;;;;5075531;28;20222;-72
2023/07/13 12:45:34;;;;;;;1.83;1.53;;;31.20;38.30;;;;;;5074277;28;20209;-72
2023/07/13 12:48:09;;;;;;;2.37;1.60;;;31.50;40.10;;;;;;5074807;28;20271;-72
2023/07/13 12:50:41;;;;;;;2.00;1.60;;;31.30;35.90;;;;;;5074430;28;20255;-72
2023/07/13 12:53:15;;;;;;;2.23;1.60;;;31.20;37.50;;;;;;5074176;28;20189;-72
2023/07/13 12:55:44;;;;;;;4.03;1.67;;;31.10;36.50;;;;;;5073897;28;20665;-72
2023/07/13 12:58:19;;;;;;;4.40;1.90;;;30.90;35.40;;;;;;5074208;28;20305;-73